sensor_id;sensor_type;location;lat;lon;timestamp;P1;P2;P0
44881;PMS5003;30612;38.304;23.786;2023-12-28T00:00:27;4.00;4.00;3.00
44881;PMS5003;30612;38.304;23.786;2023-12-28T00:02:55;6.20;6.00;2.60
44881;PMS5003;30612;38.304;23.786;2023-12-28T00:05:22;5.20;5.20;4.00
44881;PMS5003;30612;38.304;23.786;2023-12-28T00:07:50;6.20;6.20;2.60
44881;PMS5003;30612;38.304;23.786;2023-12-28T00:10:25;4.00;3.00;1.00
44881;PMS5003;30612;38.304;23.786;2023-12-28T00:12:53;4.00;4.00;2.60
44881;PMS5003;30612;38.304;23.786;2023-12-28T00:15:21;4.80;4.00;2.20
44881;PMS5003;30612;38.304;23.786;2023-12-28T00:17:49;4.00;4.00;2.20
44881;PMS5003;30612;38.304;23.786;2023-12-28T00:20:17;6.80;6.20;3.40
44881;PMS5003;30612;38.304;23.786;2023-12-28T00:22:44;4.40;4.40;1.00
44881;PMS5003;30612;38.304;23.786;2023-12-28T00:25:11;6.00;5.20;1.00
44881;PMS5003;30612;38.304;23.786;2023-12-28T00:27:38;6.00;4.80;3.00
44881;PMS5003;30612;38.304;23.786;2023-12-28T00:30:06;5.20;5.20;3.00
44881;PMS5003;30612;38.304;23.786;2023-12-28T00:32:34;7.00;4.00;3.00
44881;PMS5003;30612;38.304;23.786;2023-12-28T00:35:01;5.20;5.20;1.40
44881;PMS5003;30612;38.304;23.786;2023-12-28T00:37:29;7.40;6.00;2.60
44881;PMS5003;30612;38.304;23.786;2023-12-28T00:39:56;3.00;3.00;1.00
44881;PMS5003;30612;38.304;23.786;2023-12-28T00:42:24;6.00;4.80;3.00
44881;PMS5003;30612;38.304;23.786;2023-12-28T00:44:51;3.80;3.00;1.80
44881;PMS5003;30612;38.304;23.786;2023-12-28T00:47:19;3.80;3.60;1.00
44881;PMS5003;30612;38.304;23.786;2023-12-28T00:49:46;4.40;4.00;3.00
44881;PMS5003;30612;38.304;23.786;2023-12-28T00:52:14;9.80;5.80;3.00
44881;PMS5003;30612;38.304;23.786;2023-12-28T00:54:41;9.60;8.20;3.80
44881;PMS5003;30612;38.304;23.786;2023-12-28T00:57:08;7.00;6.60;4.00
44881;PMS5003;30612;38.304;23.786;2023-12-28T00:59:36;6.00;6.00;2.60
44881;PMS5003;30612;38.304;23.786;2023-12-28T01:02:03;6.00;5.60;3.00
44881;PMS5003;30612;38.304;23.786;2023-12-28T01:04:31;6.80;4.00;1.80
44881;PMS5003;30612;38.304;23.786;2023-12-28T01:06:58;5.20;4.00;3.00
44881;PMS5003;30612;38.304;23.786;2023-12-28T01:09:29;6.00;6.00;2.20
44881;PMS5003;30612;38.304;23.786;2023-12-28T01:11:57;4.00;3.00;0.00
44881;PMS5003;30612;38.304;23.786;2023-12-28T01:14:24;7.00;4.80;3.00
44881;PMS5003;30612;38.304;23.786;2023-12-28T01:16:52;5.20;4.00;3.00
44881;PMS5003;30612;38.304;23.786;2023-12-28T01:19:19;3.00;3.00;2.20
44881;PMS5003;30612;38.304;23.786;2023-12-28T01:21:48;1.80;1.80;0.00
44881;PMS5003;30612;38.304;23.786;2023-12-28T01:24:16;7.00;6.00;3.40
44881;PMS5003;30612;38.304;23.786;2023-12-28T01:26:44;7.00;6.00;3.00
44881;PMS5003;30612;38.304;23.786;2023-12-28T01:29:11;3.40;3.40;2.20
44881;PMS5003;30612;38.304;23.786;2023-12-28T01:31:39;9.40;4.80;3.00
44881;PMS5003;30612;38.304;23.786;2023-12-28T01:34:07;5.20;5.20;3.00
44881;PMS5003;30612;38.304;23.786;2023-12-28T01:36:36;8.00;5.60;2.20
44881;PMS5003;30612;38.304;23.786;2023-12-28T01:39:03;6.00;3.00;1.00
44881;PMS5003;30612;38.304;23.786;2023-12-28T01:41:31;2.00;1.40;1.00
44881;PMS5003;30612;38.304;23.786;2023-12-28T01:43:58;3.00;3.00;1.00
44881;PMS5003;30612;38.304;23.786;2023-12-28T01:46:25;5.20;3.00;1.00
44881;PMS5003;30612;38.304;23.786;2023-12-28T01:48:53;5.60;4.80;1.80
44881;PMS5003;30612;38.304;23.786;2023-12-28T01:51:20;3.40;3.40;1.00
44881;PMS5003;30612;38.304;23.786;2023-12-28T01:53:50;4.00;2.20;1.00
44881;PMS5003;30612;38.304;23.786;2023-12-28T01:56:18;3.00;3.00;1.00
44881;PMS5003;30612;38.304;23.786;2023-12-28T01:58:46;3.00;3.00;1.00
44881;PMS5003;30612;38.304;23.786;2023-12-28T02:01:16;8.60;6.20;3.00
44881;PMS5003;30612;38.304;23.786;2023-12-28T02:03:44;6.00;3.80;1.00
44881;PMS5003;30612;38.304;23.786;2023-12-28T02:06:13;4.00;3.40;1.00
44881;PMS5003;30612;38.304;23.786;2023-12-28T02:08:43;5.60;3.40;1.40
44881;PMS5003;30612;38.304;23.786;2023-12-28T02:11:11;3.00;3.00;1.00
44881;PMS5003;30612;38.304;23.786;2023-12-28T02:13:38;3.60;3.60;1.00
44881;PMS5003;30612;38.304;23.786;2023-12-28T02:18:52;3.20;3.20;1.00
44881;PMS5003;30612;38.304;23.786;2023-12-28T02:21:21;4.00;4.00;3.00
44881;PMS5003;30612;38.304;23.786;2023-12-28T02:23:50;3.00;3.00;1.00
44881;PMS5003;30612;38.304;23.786;2023-12-28T02:26:17;3.00;3.00;1.00
44881;PMS5003;30612;38.304;23.786;2023-12-28T02:28:45;3.00;3.00;1.00
44881;PMS5003;30612;38.304;23.786;2023-12-28T02:31:21;13.80;6.00;3.00
44881;PMS5003;30612;38.304;23.786;2023-12-28T02:34:06;7.20;4.00;3.00
44881;PMS5003;30612;38.304;23.786;2023-12-28T02:36:37;4.00;4.00;3.00
44881;PMS5003;30612;38.304;23.786;2023-12-28T02:39:08;6.60;3.80;1.80
44881;PMS5003;30612;38.304;23.786;2023-12-28T02:41:38;5.20;5.20;3.00
44881;PMS5003;30612;38.304;23.786;2023-12-28T02:44:06;7.20;3.00;1.40
44881;PMS5003;30612;38.304;23.786;2023-12-28T02:46:33;3.00;3.00;1.00
44881;PMS5003;30612;38.304;23.786;2023-12-28T02:49:00;7.00;4.00;1.00
44881;PMS5003;30612;38.304;23.786;2023-12-28T02:51:28;4.00;3.80;3.00
44881;PMS5003;30612;38.304;23.786;2023-12-28T02:53:55;6.00;6.00;2.60
44881;PMS5003;30612;38.304;23.786;2023-12-28T02:56:22;4.00;4.00;3.00
44881;PMS5003;30612;38.304;23.786;2023-12-28T02:58:50;4.00;4.00;1.80
44881;PMS5003;30612;38.304;23.786;2023-12-28T03:01:17;4.40;4.00;1.00
44881;PMS5003;30612;38.304;23.786;2023-12-28T03:03:45;6.00;4.80;3.00
44881;PMS5003;30612;38.304;23.786;2023-12-28T03:06:12;3.60;3.60;3.00
44881;PMS5003;30612;38.304;23.786;2023-12-28T03:08:40;5.80;3.40;1.00
44881;PMS5003;30612;38.304;23.786;2023-12-28T03:11:07;3.80;3.80;3.00
44881;PMS5003;30612;38.304;23.786;2023-12-28T03:13:34;3.60;3.60;1.00
44881;PMS5003;30612;38.304;23.786;2023-12-28T03:16:02;5.60;5.60;1.00
44881;PMS5003;30612;38.304;23.786;2023-12-28T03:18:29;5.60;4.00;1.40
44881;PMS5003;30612;38.304;23.786;2023-12-28T03:20:57;4.40;4.00;2.60
44881;PMS5003;30612;38.304;23.786;2023-12-28T03:23:24;4.80;4.80;1.00
44881;PMS5003;30612;38.304;23.786;2023-12-28T03:25:52;3.80;3.80;1.00
44881;PMS5003;30612;38.304;23.786;2023-12-28T03:28:19;5.60;3.80;1.00
44881;PMS5003;30612;38.304;23.786;2023-12-28T03:30:47;4.40;3.60;2.60
44881;PMS5003;30612;38.304;23.786;2023-12-28T03:33:14;4.00;4.00;1.00
44881;PMS5003;30612;38.304;23.786;2023-12-28T03:35:42;4.00;4.00;1.80
44881;PMS5003;30612;38.304;23.786;2023-12-28T03:38:09;3.00;3.00;1.00
44881;PMS5003;30612;38.304;23.786;2023-12-28T03:40:36;4.00;4.00;1.00
44881;PMS5003;30612;38.304;23.786;2023-12-28T03:43:04;3.80;3.80;1.00
44881;PMS5003;30612;38.304;23.786;2023-12-28T03:45:31;3.00;3.00;1.00
44881;PMS5003;30612;38.304;23.786;2023-12-28T03:47:59;2.60;2.60;1.40
44881;PMS5003;30612;38.304;23.786;2023-12-28T03:50:27;3.00;3.00;1.00
44881;PMS5003;30612;38.304;23.786;2023-12-28T03:52:54;1.40;1.40;0.40
44881;PMS5003;30612;38.304;23.786;2023-12-28T03:55:22;6.40;4.00;3.00
44881;PMS5003;30612;38.304;23.786;2023-12-28T03:57:50;6.00;6.00;3.00
44881;PMS5003;30612;38.304;23.786;2023-12-28T04:00:19;8.40;5.60;3.00
44881;PMS5003;30612;38.304;23.786;2023-12-28T04:02:47;6.00;3.20;1.00
44881;PMS5003;30612;38.304;23.786;2023-12-28T04:05:17;4.00;4.00;1.80
44881;PMS5003;30612;38.304;23.786;2023-12-28T04:07:44;4.00;3.80;3.00
44881;PMS5003;30612;38.304;23.786;2023-12-28T04:10:12;7.80;7.80;3.60
44881;PMS5003;30612;38.304;23.786;2023-12-28T04:12:39;6.20;4.40;3.00
44881;PMS5003;30612;38.304;23.786;2023-12-28T04:15:06;6.00;6.00;3.00
44881;PMS5003;30612;38.304;23.786;2023-12-28T04:17:35;6.80;4.40;2.20
44881;PMS5003;30612;38.304;23.786;2023-12-28T04:20:05;8.20;3.80;3.00
44881;PMS5003;30612;38.304;23.786;2023-12-28T04:22:33;1.80;1.80;1.00
44881;PMS5003;30612;38.304;23.786;2023-12-28T04:25:00;4.80;4.00;1.00
44881;PMS5003;30612;38.304;23.786;2023-12-28T04:27:28;6.00;6.00;3.80
44881;PMS5003;30612;38.304;23.786;2023-12-28T04:29:55;6.80;6.20;3.00
44881;PMS5003;30612;38.304;23.786;2023-12-28T04:32:22;6.00;6.00;3.00
44881;PMS5003;30612;38.304;23.786;2023-12-28T04:34:51;3.40;3.00;1.00
44881;PMS5003;30612;38.304;23.786;2023-12-28T04:37:18;7.40;6.20;3.00
44881;PMS5003;30612;38.304;23.786;2023-12-28T04:39:46;3.40;3.40;2.60
44881;PMS5003;30612;38.304;23.786;2023-12-28T04:42:13;6.00;6.00;1.00
44881;PMS5003;30612;38.304;23.786;2023-12-28T04:44:41;4.80;4.80;3.00
44881;PMS5003;30612;38.304;23.786;2023-12-28T04:47:08;3.60;3.60;1.00
44881;PMS5003;30612;38.304;23.786;2023-12-28T04:49:36;4.00;4.00;1.00
44881;PMS5003;30612;38.304;23.786;2023-12-28T04:52:03;6.40;6.40;3.00
44881;PMS5003;30612;38.304;23.786;2023-12-28T04:54:31;6.60;4.00;3.00
44881;PMS5003;30612;38.304;23.786;2023-12-28T04:56:59;4.80;4.80;3.00
44881;PMS5003;30612;38.304;23.786;2023-12-28T04:59:27;3.80;3.80;3.00
44881;PMS5003;30612;38.304;23.786;2023-12-28T05:01:54;6.80;6.00;3.00
44881;PMS5003;30612;38.304;23.786;2023-12-28T05:04:22;10.80;7.00;4.00
44881;PMS5003;30612;38.304;23.786;2023-12-28T05:06:49;4.00;4.00;3.00
44881;PMS5003;30612;38.304;23.786;2023-12-28T05:09:17;7.80;6.00;3.00
44881;PMS5003;30612;38.304;23.786;2023-12-28T05:11:44;3.80;3.80;1.00
44881;PMS5003;30612;38.304;23.786;2023-12-28T05:14:11;5.60;5.60;2.20
44881;PMS5003;30612;38.304;23.786;2023-12-28T05:16:39;9.80;9.00;3.80
44881;PMS5003;30612;38.304;23.786;2023-12-28T05:19:06;4.60;4.60;1.80
44881;PMS5003;30612;38.304;23.786;2023-12-28T05:21:34;6.60;4.40;3.00
44881;PMS5003;30612;38.304;23.786;2023-12-28T05:24:01;6.00;5.60;3.00
44881;PMS5003;30612;38.304;23.786;2023-12-28T05:26:29;6.80;5.20;3.00
44881;PMS5003;30612;38.304;23.786;2023-12-28T05:28:56;3.20;3.20;3.00
44881;PMS5003;30612;38.304;23.786;2023-12-28T05:31:23;3.00;3.00;1.00
44881;PMS5003;30612;38.304;23.786;2023-12-28T05:33:51;5.20;3.20;1.00
44881;PMS5003;30612;38.304;23.786;2023-12-28T05:36:18;4.00;4.00;1.00
44881;PMS5003;30612;38.304;23.786;2023-12-28T05:38:45;4.80;4.80;3.00
44881;PMS5003;30612;38.304;23.786;2023-12-28T05:41:13;3.60;3.00;1.80
44881;PMS5003;30612;38.304;23.786;2023-12-28T05:43:40;6.40;6.40;3.20
44881;PMS5003;30612;38.304;23.786;2023-12-28T05:46:08;6.00;4.40;3.00
44881;PMS5003;30612;38.304;23.786;2023-12-28T05:48:35;6.80;4.80;3.00
44881;PMS5003;30612;38.304;23.786;2023-12-28T05:51:03;4.00;4.00;2.60
44881;PMS5003;30612;38.304;23.786;2023-12-28T05:53:30;6.80;5.20;1.80
44881;PMS5003;30612;38.304;23.786;2023-12-28T05:55:58;4.40;4.00;3.00
44881;PMS5003;30612;38.304;23.786;2023-12-28T05:58:30;6.60;5.80;3.00
44881;PMS5003;30612;38.304;23.786;2023-12-28T06:00:57;10.40;7.00;4.00
44881;PMS5003;30612;38.304;23.786;2023-12-28T06:03:25;7.20;6.80;4.00
44881;PMS5003;30612;38.304;23.786;2023-12-28T06:05:55;9.00;7.00;3.00
44881;PMS5003;30612;38.304;23.786;2023-12-28T06:08:22;10.00;9.40;4.00
44881;PMS5003;30612;38.304;23.786;2023-12-28T06:10:53;6.20;6.20;3.80
44881;PMS5003;30612;38.304;23.786;2023-12-28T06:13:20;5.20;5.20;3.80
44881;PMS5003;30612;38.304;23.786;2023-12-28T06:15:47;5.20;5.20;3.00
44881;PMS5003;30612;38.304;23.786;2023-12-28T06:18:15;6.20;4.80;3.00
44881;PMS5003;30612;38.304;23.786;2023-12-28T06:20:42;3.80;3.80;2.20
44881;PMS5003;30612;38.304;23.786;2023-12-28T06:23:10;7.00;4.00;2.20
44881;PMS5003;30612;38.304;23.786;2023-12-28T06:25:37;6.20;5.20;2.60
44881;PMS5003;30612;38.304;23.786;2023-12-28T06:28:05;6.60;6.20;1.00
44881;PMS5003;30612;38.304;23.786;2023-12-28T06:30:33;7.00;6.00;3.00
44881;PMS5003;30612;38.304;23.786;2023-12-28T06:33:00;4.60;3.40;1.00
44881;PMS5003;30612;38.304;23.786;2023-12-28T06:35:28;7.60;6.00;3.00
44881;PMS5003;30612;38.304;23.786;2023-12-28T06:37:55;9.00;6.00;2.20
44881;PMS5003;30612;38.304;23.786;2023-12-28T06:40:23;3.40;3.40;2.60
44881;PMS5003;30612;38.304;23.786;2023-12-28T06:42:50;4.40;4.00;2.20
44881;PMS5003;30612;38.304;23.786;2023-12-28T06:45:18;7.00;7.00;3.00
44881;PMS5003;30612;38.304;23.786;2023-12-28T06:47:45;7.00;6.00;3.00
44881;PMS5003;30612;38.304;23.786;2023-12-28T06:50:12;6.60;6.00;3.00
44881;PMS5003;30612;38.304;23.786;2023-12-28T06:52:40;6.20;6.20;3.00
44881;PMS5003;30612;38.304;23.786;2023-12-28T06:55:07;3.80;3.00;3.00
44881;PMS5003;30612;38.304;23.786;2023-12-28T06:57:35;7.40;4.00;3.00
44881;PMS5003;30612;38.304;23.786;2023-12-28T07:00:02;6.80;6.60;3.00
44881;PMS5003;30612;38.304;23.786;2023-12-28T07:02:31;3.00;3.00;1.00
44881;PMS5003;30612;38.304;23.786;2023-12-28T07:04:58;3.40;3.40;1.80
44881;PMS5003;30612;38.304;23.786;2023-12-28T07:07:26;4.00;4.00;3.00
44881;PMS5003;30612;38.304;23.786;2023-12-28T07:09:53;3.80;3.80;1.00
44881;PMS5003;30612;38.304;23.786;2023-12-28T07:12:20;0.00;0.00;0.00
44881;PMS5003;30612;38.304;23.786;2023-12-28T07:14:48;4.00;3.00;1.00
44881;PMS5003;30612;38.304;23.786;2023-12-28T07:17:15;3.40;3.40;1.00
44881;PMS5003;30612;38.304;23.786;2023-12-28T07:19:44;3.20;3.20;1.00
44881;PMS5003;30612;38.304;23.786;2023-12-28T07:22:12;3.40;3.40;1.00
44881;PMS5003;30612;38.304;23.786;2023-12-28T07:24:39;1.80;1.80;0.00
44881;PMS5003;30612;38.304;23.786;2023-12-28T07:27:07;1.60;1.60;1.00
44881;PMS5003;30612;38.304;23.786;2023-12-28T07:29:34;3.80;3.80;2.00
44881;PMS5003;30612;38.304;23.786;2023-12-28T07:32:01;5.80;5.80;3.00
44881;PMS5003;30612;38.304;23.786;2023-12-28T07:34:29;6.40;4.00;1.00
44881;PMS5003;30612;38.304;23.786;2023-12-28T07:36:56;5.00;5.00;2.20
44881;PMS5003;30612;38.304;23.786;2023-12-28T07:39:24;5.40;4.80;3.80
44881;PMS5003;30612;38.304;23.786;2023-12-28T07:41:52;5.40;5.40;3.00
44881;PMS5003;30612;38.304;23.786;2023-12-28T07:44:21;3.20;3.20;1.00
44881;PMS5003;30612;38.304;23.786;2023-12-28T07:46:49;4.00;4.00;1.00
44881;PMS5003;30612;38.304;23.786;2023-12-28T07:49:16;2.80;2.80;1.00
44881;PMS5003;30612;38.304;23.786;2023-12-28T07:51:44;5.40;5.00;1.60
44881;PMS5003;30612;38.304;23.786;2023-12-28T07:54:12;4.00;4.00;2.00
44881;PMS5003;30612;38.304;23.786;2023-12-28T07:56:40;1.20;1.20;0.40
44881;PMS5003;30612;38.304;23.786;2023-12-28T07:59:07;6.20;6.20;1.80
44881;PMS5003;30612;38.304;23.786;2023-12-28T08:01:36;5.00;4.00;2.00
44881;PMS5003;30612;38.304;23.786;2023-12-28T08:04:03;1.40;1.40;0.00
44881;PMS5003;30612;38.304;23.786;2023-12-28T08:06:31;1.60;1.00;1.00
44881;PMS5003;30612;38.304;23.786;2023-12-28T08:08:59;3.60;3.60;1.00
44881;PMS5003;30612;38.304;23.786;2023-12-28T08:11:29;5.40;3.60;2.00
44881;PMS5003;30612;38.304;23.786;2023-12-28T08:13:57;2.80;2.80;1.60
44881;PMS5003;30612;38.304;23.786;2023-12-28T08:16:25;7.00;5.60;2.00
44881;PMS5003;30612;38.304;23.786;2023-12-28T08:18:53;4.40;4.40;2.00
44881;PMS5003;30612;38.304;23.786;2023-12-28T08:21:21;6.20;6.20;4.00
44881;PMS5003;30612;38.304;23.786;2023-12-28T08:23:48;11.80;9.00;4.20
44881;PMS5003;30612;38.304;23.786;2023-12-28T08:26:16;13.00;11.00;7.00
44881;PMS5003;30612;38.304;23.786;2023-12-28T08:28:43;10.60;8.40;5.00
44881;PMS5003;30612;38.304;23.786;2023-12-28T08:31:10;15.20;8.60;2.80
44881;PMS5003;30612;38.304;23.786;2023-12-28T08:33:39;6.20;5.40;2.00
44881;PMS5003;30612;38.304;23.786;2023-12-28T08:36:07;5.80;4.00;1.20
44881;PMS5003;30612;38.304;23.786;2023-12-28T08:38:35;4.00;4.00;2.00
44881;PMS5003;30612;38.304;23.786;2023-12-28T08:41:02;4.00;4.00;2.00
44881;PMS5003;30612;38.304;23.786;2023-12-28T08:43:35;8.00;6.40;2.00
44881;PMS5003;30612;38.304;23.786;2023-12-28T08:46:03;6.40;5.80;2.00
44881;PMS5003;30612;38.304;23.786;2023-12-28T08:48:31;7.40;6.20;3.20
44881;PMS5003;30612;38.304;23.786;2023-12-28T08:50:58;11.40;9.80;5.40
44881;PMS5003;30612;38.304;23.786;2023-12-28T08:53:25;11.60;7.40;5.00
44881;PMS5003;30612;38.304;23.786;2023-12-28T08:55:53;8.40;6.20;2.00
44881;PMS5003;30612;38.304;23.786;2023-12-28T08:58:20;7.80;7.80;4.20
44881;PMS5003;30612;38.304;23.786;2023-12-28T09:00:48;8.40;7.00;1.60
44881;PMS5003;30612;38.304;23.786;2023-12-28T09:03:16;5.40;5.00;4.00
44881;PMS5003;30612;38.304;23.786;2023-12-28T09:05:43;8.40;6.20;4.00
44881;PMS5003;30612;38.304;23.786;2023-12-28T09:15:48;8.40;8.20;5.80
44881;PMS5003;30612;38.304;23.786;2023-12-28T09:18:18;9.80;9.60;5.00
44881;PMS5003;30612;38.304;23.786;2023-12-28T09:20:46;9.80;9.00;4.00
44881;PMS5003;30612;38.304;23.786;2023-12-28T09:23:14;8.60;6.60;4.00
44881;PMS5003;30612;38.304;23.786;2023-12-28T09:25:41;4.80;4.00;1.60
44881;PMS5003;30612;38.304;23.786;2023-12-28T09:28:08;6.40;6.00;3.60
44881;PMS5003;30612;38.304;23.786;2023-12-28T09:30:36;5.20;5.00;3.60
44881;PMS5003;30612;38.304;23.786;2023-12-28T09:33:04;8.00;8.00;4.20
44881;PMS5003;30612;38.304;23.786;2023-12-28T09:35:31;8.00;5.00;2.40
44881;PMS5003;30612;38.304;23.786;2023-12-28T09:37:59;5.40;5.40;2.80
44881;PMS5003;30612;38.304;23.786;2023-12-28T09:40:26;7.60;7.60;3.60
44881;PMS5003;30612;38.304;23.786;2023-12-28T09:43:01;5.20;5.20;3.60
44881;PMS5003;30612;38.304;23.786;2023-12-28T09:45:35;4.20;2.40;1.20
44881;PMS5003;30612;38.304;23.786;2023-12-28T09:48:05;4.40;4.00;1.20
44881;PMS5003;30612;38.304;23.786;2023-12-28T09:50:34;2.00;2.00;2.00
44881;PMS5003;30612;38.304;23.786;2023-12-28T09:53:01;6.00;5.00;2.00
44881;PMS5003;30612;38.304;23.786;2023-12-28T09:55:29;6.00;5.00;4.00
44881;PMS5003;30612;38.304;23.786;2023-12-28T09:57:56;8.40;8.40;4.00
44881;PMS5003;30612;38.304;23.786;2023-12-28T10:00:25;7.20;7.20;2.80
44881;PMS5003;30612;38.304;23.786;2023-12-28T10:02:52;7.80;5.00;1.80
44881;PMS5003;30612;38.304;23.786;2023-12-28T10:05:20;6.00;4.00;2.40
44881;PMS5003;30612;38.304;23.786;2023-12-28T10:07:48;5.40;5.00;4.00
44881;PMS5003;30612;38.304;23.786;2023-12-28T10:10:17;6.60;6.00;2.80
44881;PMS5003;30612;38.304;23.786;2023-12-28T10:12:46;7.60;7.60;4.00
44881;PMS5003;30612;38.304;23.786;2023-12-28T10:15:14;5.60;5.60;2.00
44881;PMS5003;30612;38.304;23.786;2023-12-28T10:17:42;5.60;5.60;3.20
44881;PMS5003;30612;38.304;23.786;2023-12-28T10:20:09;4.80;4.80;4.00
44881;PMS5003;30612;38.304;23.786;2023-12-28T10:22:37;5.40;5.00;3.00
44881;PMS5003;30612;38.304;23.786;2023-12-28T10:25:05;7.80;6.80;4.00
44881;PMS5003;30612;38.304;23.786;2023-12-28T10:27:36;7.20;7.20;4.60
44881;PMS5003;30612;38.304;23.786;2023-12-28T10:30:06;5.00;5.00;4.20
44881;PMS5003;30612;38.304;23.786;2023-12-28T10:32:34;9.40;8.00;5.00
44881;PMS5003;30612;38.304;23.786;2023-12-28T10:35:03;5.60;5.60;2.00
44881;PMS5003;30612;38.304;23.786;2023-12-28T10:37:31;6.60;5.40;2.00
44881;PMS5003;30612;38.304;23.786;2023-12-28T10:39:59;5.00;5.00;2.60
44881;PMS5003;30612;38.304;23.786;2023-12-28T10:42:28;8.00;4.80;2.00
44881;PMS5003;30612;38.304;23.786;2023-12-28T10:45:05;6.00;5.80;3.20
44881;PMS5003;30612;38.304;23.786;2023-12-28T10:47:33;8.40;6.00;4.00
44881;PMS5003;30612;38.304;23.786;2023-12-28T10:50:10;10.60;9.80;5.80
44881;PMS5003;30612;38.304;23.786;2023-12-28T10:52:38;11.40;8.80;5.00
44881;PMS5003;30612;38.304;23.786;2023-12-28T10:55:15;8.20;6.00;5.00
44881;PMS5003;30612;38.304;23.786;2023-12-28T10:57:57;9.00;7.80;5.20
44881;PMS5003;30612;38.304;23.786;2023-12-28T11:00:28;7.40;7.40;5.00
44881;PMS5003;30612;38.304;23.786;2023-12-28T11:03:01;13.60;10.80;5.60
44881;PMS5003;30612;38.304;23.786;2023-12-28T11:05:31;10.20;9.00;4.60
44881;PMS5003;30612;38.304;23.786;2023-12-28T11:07:59;6.80;6.80;5.20
44881;PMS5003;30612;38.304;23.786;2023-12-28T11:10:27;8.60;6.40;3.20
44881;PMS5003;30612;38.304;23.786;2023-12-28T11:12:56;11.20;7.20;5.00
44881;PMS5003;30612;38.304;23.786;2023-12-28T11:15:24;14.20;12.60;6.00
44881;PMS5003;30612;38.304;23.786;2023-12-28T11:17:53;11.00;9.00;1.00
44881;PMS5003;30612;38.304;23.786;2023-12-28T11:20:21;6.80;6.80;4.60
44881;PMS5003;30612;38.304;23.786;2023-12-28T11:22:48;10.40;10.00;5.00
44881;PMS5003;30612;38.304;23.786;2023-12-28T11:25:17;7.00;5.80;2.40
44881;PMS5003;30612;38.304;23.786;2023-12-28T11:27:45;4.60;4.20;1.80
44881;PMS5003;30612;38.304;23.786;2023-12-28T11:30:14;10.80;10.80;7.00
44881;PMS5003;30612;38.304;23.786;2023-12-28T11:32:41;13.40;9.00;5.20
44881;PMS5003;30612;38.304;23.786;2023-12-28T11:35:13;9.80;9.00;5.00
44881;PMS5003;30612;38.304;23.786;2023-12-28T11:37:44;6.40;6.40;3.00
44881;PMS5003;30612;38.304;23.786;2023-12-28T11:40:17;9.20;8.60;6.00
44881;PMS5003;30612;38.304;23.786;2023-12-28T11:42:56;12.20;10.60;6.00
44881;PMS5003;30612;38.304;23.786;2023-12-28T11:45:24;14.40;13.80;9.00
44881;PMS5003;30612;38.304;23.786;2023-12-28T11:47:59;10.20;10.00;5.00
44881;PMS5003;30612;38.304;23.786;2023-12-28T11:50:28;21.60;13.40;7.00
44881;PMS5003;30612;38.304;23.786;2023-12-28T11:52:55;11.00;11.00;6.80
44881;PMS5003;30612;38.304;23.786;2023-12-28T11:55:23;18.00;15.00;9.80
44881;PMS5003;30612;38.304;23.786;2023-12-28T11:57:51;12.60;10.80;6.00
44881;PMS5003;30612;38.304;23.786;2023-12-28T12:00:19;11.00;11.00;6.20
44881;PMS5003;30612;38.304;23.786;2023-12-28T12:02:48;11.40;11.20;6.80
44881;PMS5003;30612;38.304;23.786;2023-12-28T12:05:15;11.40;9.20;5.00
44881;PMS5003;30612;38.304;23.786;2023-12-28T12:07:43;9.00;9.00;5.00
44881;PMS5003;30612;38.304;23.786;2023-12-28T12:10:14;9.60;6.80;2.80
44881;PMS5003;30612;38.304;23.786;2023-12-28T12:12:42;7.80;6.60;5.00
44881;PMS5003;30612;38.304;23.786;2023-12-28T12:15:09;6.00;6.00;2.60
44881;PMS5003;30612;38.304;23.786;2023-12-28T12:17:38;9.60;9.60;5.40
44881;PMS5003;30612;38.304;23.786;2023-12-28T12:20:06;10.20;10.20;6.40
44881;PMS5003;30612;38.304;23.786;2023-12-28T12:22:33;7.00;7.00;3.00
44881;PMS5003;30612;38.304;23.786;2023-12-28T12:25:01;9.00;9.00;5.80
44881;PMS5003;30612;38.304;23.786;2023-12-28T12:27:31;8.20;6.40;4.60
44881;PMS5003;30612;38.304;23.786;2023-12-28T12:29:59;6.20;6.00;4.20
44881;PMS5003;30612;38.304;23.786;2023-12-28T12:32:26;9.80;6.00;3.40
44881;PMS5003;30612;38.304;23.786;2023-12-28T12:34:55;7.00;6.00;4.20
44881;PMS5003;30612;38.304;23.786;2023-12-28T12:37:22;9.80;8.40;5.00
44881;PMS5003;30612;38.304;23.786;2023-12-28T12:39:50;9.00;6.60;3.00
44881;PMS5003;30612;38.304;23.786;2023-12-28T12:42:18;2.60;1.00;1.00
44881;PMS5003;30612;38.304;23.786;2023-12-28T12:44:46;7.80;7.80;3.00
44881;PMS5003;30612;38.304;23.786;2023-12-28T12:47:14;3.60;3.00;2.00
44881;PMS5003;30612;38.304;23.786;2023-12-28T12:49:41;6.00;6.00;5.00
44881;PMS5003;30612;38.304;23.786;2023-12-28T12:52:11;5.80;5.80;2.00
44881;PMS5003;30612;38.304;23.786;2023-12-28T12:54:39;3.00;3.00;1.20
44881;PMS5003;30612;38.304;23.786;2023-12-28T12:57:07;5.20;5.20;2.20
44881;PMS5003;30612;38.304;23.786;2023-12-28T12:59:34;1.00;1.00;0.00
44881;PMS5003;30612;38.304;23.786;2023-12-28T13:02:02;5.60;5.60;2.00
44881;PMS5003;30612;38.304;23.786;2023-12-28T13:04:30;6.80;4.20;2.20
44881;PMS5003;30612;38.304;23.786;2023-12-28T13:06:58;4.20;4.20;2.00
44881;PMS5003;30612;38.304;23.786;2023-12-28T13:09:25;2.80;2.80;1.80
44881;PMS5003;30612;38.304;23.786;2023-12-28T13:11:53;3.40;3.40;2.00
44881;PMS5003;30612;38.304;23.786;2023-12-28T13:14:20;3.80;3.80;1.00
44881;PMS5003;30612;38.304;23.786;2023-12-28T13:16:48;2.80;2.00;1.00
44881;PMS5003;30612;38.304;23.786;2023-12-28T13:19:24;3.00;3.00;1.00
44881;PMS5003;30612;38.304;23.786;2023-12-28T13:21:51;5.00;3.00;1.20
44881;PMS5003;30612;38.304;23.786;2023-12-28T13:24:19;4.40;2.00;1.00
44881;PMS5003;30612;38.304;23.786;2023-12-28T13:26:46;3.00;3.00;2.00
44881;PMS5003;30612;38.304;23.786;2023-12-28T13:29:14;3.80;3.80;2.00
44881;PMS5003;30612;38.304;23.786;2023-12-28T13:31:41;3.40;3.00;1.60
44881;PMS5003;30612;38.304;23.786;2023-12-28T13:34:11;3.00;3.00;2.00
44881;PMS5003;30612;38.304;23.786;2023-12-28T13:36:39;2.00;2.00;1.00
44881;PMS5003;30612;38.304;23.786;2023-12-28T13:39:07;6.80;5.20;3.00
44881;PMS5003;30612;38.304;23.786;2023-12-28T13:41:38;2.40;2.40;1.60
44881;PMS5003;30612;38.304;23.786;2023-12-28T13:44:05;5.00;3.00;2.00
44881;PMS5003;30612;38.304;23.786;2023-12-28T13:46:37;3.40;3.40;2.00
44881;PMS5003;30612;38.304;23.786;2023-12-28T13:49:05;6.60;5.80;2.00
44881;PMS5003;30612;38.304;23.786;2023-12-28T13:51:35;4.80;3.00;2.00
44881;PMS5003;30612;38.304;23.786;2023-12-28T13:54:02;4.20;4.20;1.00
44881;PMS5003;30612;38.304;23.786;2023-12-28T13:56:32;2.80;1.60;0.80
44881;PMS5003;30612;38.304;23.786;2023-12-28T13:58:59;3.00;3.00;1.80
44881;PMS5003;30612;38.304;23.786;2023-12-28T14:01:26;1.00;1.00;0.00
44881;PMS5003;30612;38.304;23.786;2023-12-28T14:03:54;3.20;3.20;1.20
44881;PMS5003;30612;38.304;23.786;2023-12-28T14:06:21;1.60;1.20;1.00
44881;PMS5003;30612;38.304;23.786;2023-12-28T14:08:49;3.80;3.00;2.00
44881;PMS5003;30612;38.304;23.786;2023-12-28T14:11:16;2.00;2.00;1.20
44881;PMS5003;30612;38.304;23.786;2023-12-28T14:13:43;1.00;1.00;0.60
44881;PMS5003;30612;38.304;23.786;2023-12-28T14:16:11;5.00;1.20;1.00
44881;PMS5003;30612;38.304;23.786;2023-12-28T14:18:38;2.60;1.00;1.00
44881;PMS5003;30612;38.304;23.786;2023-12-28T14:21:09;1.40;1.40;0.00
44881;PMS5003;30612;38.304;23.786;2023-12-28T14:23:36;2.00;2.00;1.00